Pomona Park, Florida
Current Conditions -  °F | °C
As of 12:55 AM on Thursday 23 Oct 2014 (Local Time) from KXFL Reporting Station
Clear Clear  
Wind Chill: 65°   Ceiling: Unl
Heat Index: 65°   Visibility: NA
Dew Point: 54°   Wind: 7mph
Humidity: 66%   Direction: 30°NNE
Pressure: 30.01"   Gusts: NA
Location:  29.5°N, 81.59°W
Report Text: KXFL 230455Z AUTO 03006KT CLR 18/12 A3001 RMK AO2 T01840120 PWINO
Loading
Personal Weather Stations






























Interactive Weather Map
Tropical Storm Tracking
New forecast layout! Learn more

10-Day Weather Forecast

Advertisements
Track Severe Weather on mobile